Terminal Aerodrome Forecast
Issued by NWS Paducah, KY

Home | Current Version | Previous Version | Text Only | Print | Product List | Glossary On
Versions: 1 2 3 4 5 6 7 8 9 10 11 12 13 14
000
FTUS43 KPAH 012340
TAFEVV
TAF
KEVV 012340Z 0200/0224 24009KT P6SM VCSH SCT045
     FM020600 28005KT P6SM SCT150
     FM021200 32004KT P6SM BKN010
     FM021900 32007KT P6SM BKN025=

USA.gov is the U.S. government's official web portal to all federal, state and local government web resources and services.